sensor_id;sensor_type;location;lat;lon;timestamp;pressure;altitude;pressure_sealevel;temperature;humidity
8366;BME280;4220;42.502;24.188;2023-03-19T00:01:28;95727.75;;;0.63;92.96
8366;BME280;4220;42.502;24.188;2023-03-19T00:03:54;95740.69;;;0.83;91.81
8366;BME280;4220;42.502;24.188;2023-03-19T00:06:21;95738.59;;;0.86;91.26
8366;BME280;4220;42.502;24.188;2023-03-19T00:08:49;95739.81;;;0.92;90.91
8366;BME280;4220;42.502;24.188;2023-03-19T00:11:16;95744.97;;;1.01;89.12
8366;BME280;4220;42.502;24.188;2023-03-19T00:13:43;95745.50;;;1.05;88.70
8366;BME280;4220;42.502;24.188;2023-03-19T00:16:10;95740.00;;;1.08;87.87
8366;BME280;4220;42.502;24.188;2023-03-19T00:18:38;95736.66;;;1.15;85.99
8366;BME280;4220;42.502;24.188;2023-03-19T00:21:06;95696.03;;;0.86;85.47
8366;BME280;4220;42.502;24.188;2023-03-19T00:23:34;95721.25;;;0.95;85.82
8366;BME280;4220;42.502;24.188;2023-03-19T00:26:01;95691.56;;;0.51;88.12
8366;BME280;4220;42.502;24.188;2023-03-19T00:28:28;95719.22;;;0.61;90.26
8366;BME280;4220;42.502;24.188;2023-03-19T00:30:55;95733.94;;;0.62;91.28
8366;BME280;4220;42.502;24.188;2023-03-19T00:33:22;95734.53;;;0.47;92.33
8366;BME280;4220;42.502;24.188;2023-03-19T00:35:52;95721.91;;;0.15;95.83
8366;BME280;4220;42.502;24.188;2023-03-19T00:38:18;95729.69;;;0.34;95.92
8366;BME280;4220;42.502;24.188;2023-03-19T00:40:45;95724.84;;;0.39;95.00
8366;BME280;4220;42.502;24.188;2023-03-19T00:43:12;95725.59;;;0.49;94.68
8366;BME280;4220;42.502;24.188;2023-03-19T00:45:39;95718.56;;;0.59;93.86
8366;BME280;4220;42.502;24.188;2023-03-19T00:48:06;95716.31;;;0.37;93.45
8366;BME280;4220;42.502;24.188;2023-03-19T00:50:33;95706.00;;;0.45;93.85
8366;BME280;4220;42.502;24.188;2023-03-19T00:53:01;95709.47;;;0.63;91.98
8366;BME280;4220;42.502;24.188;2023-03-19T00:55:28;95706.09;;;0.53;92.54
8366;BME280;4220;42.502;24.188;2023-03-19T00:57:55;95707.16;;;0.60;92.53
8366;BME280;4220;42.502;24.188;2023-03-19T01:00:22;95704.84;;;0.57;92.04
8366;BME280;4220;42.502;24.188;2023-03-19T01:02:49;95705.38;;;0.61;90.90
8366;BME280;4220;42.502;24.188;2023-03-19T01:05:16;95700.34;;;0.50;91.09
8366;BME280;4220;42.502;24.188;2023-03-19T01:07:43;95694.59;;;0.46;91.77
8366;BME280;4220;42.502;24.188;2023-03-19T01:10:11;95687.56;;;0.47;92.71
8366;BME280;4220;42.502;24.188;2023-03-19T01:12:38;95690.78;;;0.41;93.08
8366;BME280;4220;42.502;24.188;2023-03-19T01:15:06;95675.41;;;0.38;92.73
8366;BME280;4220;42.502;24.188;2023-03-19T01:17:33;95680.88;;;0.17;93.78
8366;BME280;4220;42.502;24.188;2023-03-19T01:20:00;95694.19;;;0.14;95.54
8366;BME280;4220;42.502;24.188;2023-03-19T01:22:26;95681.97;;;0.15;95.27
8366;BME280;4220;42.502;24.188;2023-03-19T01:24:53;95691.72;;;0.13;95.59
8366;BME280;4220;42.502;24.188;2023-03-19T01:27:22;95687.13;;;-0.03;97.21
8366;BME280;4220;42.502;24.188;2023-03-19T01:29:49;95671.44;;;-0.40;99.54
8366;BME280;4220;42.502;24.188;2023-03-19T01:32:16;95681.88;;;-0.49;100.00
8366;BME280;4220;42.502;24.188;2023-03-19T01:34:43;95685.44;;;-0.50;100.00
8366;BME280;4220;42.502;24.188;2023-03-19T01:37:11;95684.47;;;-0.40;100.00
8366;BME280;4220;42.502;24.188;2023-03-19T01:39:38;95687.69;;;-0.19;100.00
8366;BME280;4220;42.502;24.188;2023-03-19T01:42:05;95681.06;;;-0.04;100.00
8366;BME280;4220;42.502;24.188;2023-03-19T01:44:35;95678.66;;;0.13;100.00
8366;BME280;4220;42.502;24.188;2023-03-19T01:47:04;95672.44;;;0.23;98.30
8366;BME280;4220;42.502;24.188;2023-03-19T01:49:33;95689.81;;;0.15;98.42
8366;BME280;4220;42.502;24.188;2023-03-19T01:52:02;95677.47;;;0.07;98.51
8366;BME280;4220;42.502;24.188;2023-03-19T01:54:31;95676.22;;;0.11;97.94
8366;BME280;4220;42.502;24.188;2023-03-19T01:57:01;95672.03;;;-0.09;98.94
8366;BME280;4220;42.502;24.188;2023-03-19T01:59:30;95672.63;;;-0.15;100.00
8366;BME280;4220;42.502;24.188;2023-03-19T02:02:02;95673.09;;;-0.02;100.00
8366;BME280;4220;42.502;24.188;2023-03-19T02:04:31;95642.28;;;-0.16;99.60
8366;BME280;4220;42.502;24.188;2023-03-19T02:07:01;95652.81;;;-0.08;99.34
8366;BME280;4220;42.502;24.188;2023-03-19T02:09:28;95676.88;;;0.13;98.97
8366;BME280;4220;42.502;24.188;2023-03-19T02:11:57;95668.75;;;0.26;97.57
8366;BME280;4220;42.502;24.188;2023-03-19T02:14:24;95669.34;;;0.37;95.72
8366;BME280;4220;42.502;24.188;2023-03-19T02:16:52;95675.16;;;0.31;94.09
8366;BME280;4220;42.502;24.188;2023-03-19T02:19:27;95686.94;;;0.35;92.46
8366;BME280;4220;42.502;24.188;2023-03-19T02:21:58;95681.56;;;0.46;91.40
8366;BME280;4220;42.502;24.188;2023-03-19T02:24:31;95686.63;;;0.48;90.57
8366;BME280;4220;42.502;24.188;2023-03-19T02:27:00;95689.81;;;0.05;93.50
8366;BME280;4220;42.502;24.188;2023-03-19T02:29:27;95691.91;;;0.02;95.91
8366;BME280;4220;42.502;24.188;2023-03-19T02:31:54;95688.78;;;-0.12;97.83
8366;BME280;4220;42.502;24.188;2023-03-19T02:34:35;95665.34;;;-0.21;98.27
8366;BME280;4220;42.502;24.188;2023-03-19T02:37:07;95677.03;;;-0.25;99.83
8366;BME280;4220;42.502;24.188;2023-03-19T02:39:39;95697.06;;;-0.35;100.00
8366;BME280;4220;42.502;24.188;2023-03-19T02:42:08;95689.25;;;-0.35;100.00
8366;BME280;4220;42.502;24.188;2023-03-19T02:44:35;95694.44;;;-0.26;100.00
8366;BME280;4220;42.502;24.188;2023-03-19T02:47:03;95689.38;;;-0.27;100.00
8366;BME280;4220;42.502;24.188;2023-03-19T02:49:29;95691.81;;;-0.16;100.00
8366;BME280;4220;42.502;24.188;2023-03-19T02:51:56;95692.38;;;-0.22;100.00
8366;BME280;4220;42.502;24.188;2023-03-19T02:54:23;95697.03;;;-0.16;99.98
8366;BME280;4220;42.502;24.188;2023-03-19T02:56:50;95642.78;;;-0.40;99.19
8366;BME280;4220;42.502;24.188;2023-03-19T02:59:19;95700.03;;;-0.11;97.95
8366;BME280;4220;42.502;24.188;2023-03-19T03:01:46;95704.16;;;-0.18;98.54
8366;BME280;4220;42.502;24.188;2023-03-19T03:04:13;95702.78;;;-0.13;98.49
8366;BME280;4220;42.502;24.188;2023-03-19T03:06:41;95700.69;;;-0.09;98.43
8366;BME280;4220;42.502;24.188;2023-03-19T03:09:08;95624.16;;;-0.54;97.68
8366;BME280;4220;42.502;24.188;2023-03-19T03:11:35;95708.22;;;0.04;98.08
8366;BME280;4220;42.502;24.188;2023-03-19T03:14:02;95703.25;;;0.10;98.20
8366;BME280;4220;42.502;24.188;2023-03-19T03:16:30;95706.84;;;0.09;98.79
8366;BME280;4220;42.502;24.188;2023-03-19T03:18:57;95694.63;;;0.10;98.70
8366;BME280;4220;42.502;24.188;2023-03-19T03:21:24;95695.28;;;0.12;98.40
8366;BME280;4220;42.502;24.188;2023-03-19T03:23:51;95709.25;;;0.20;98.29
8366;BME280;4220;42.502;24.188;2023-03-19T03:26:18;95713.28;;;0.05;99.15
8366;BME280;4220;42.502;24.188;2023-03-19T03:28:45;95704.97;;;-0.08;100.00
8366;BME280;4220;42.502;24.188;2023-03-19T03:31:12;95715.63;;;-0.02;100.00
8366;BME280;4220;42.502;24.188;2023-03-19T03:33:40;95682.88;;;-0.14;100.00
8366;BME280;4220;42.502;24.188;2023-03-19T03:36:07;95718.88;;;0.10;98.63
8366;BME280;4220;42.502;24.188;2023-03-19T03:38:34;95722.59;;;0.08;96.41
8366;BME280;4220;42.502;24.188;2023-03-19T03:41:01;95723.59;;;0.07;95.01
8366;BME280;4220;42.502;24.188;2023-03-19T03:43:29;95730.03;;;0.03;93.07
8366;BME280;4220;42.502;24.188;2023-03-19T03:45:56;95722.78;;;-0.04;92.12
8366;BME280;4220;42.502;24.188;2023-03-19T03:48:23;95728.03;;;-0.13;92.78
8366;BME280;4220;42.502;24.188;2023-03-19T03:50:51;95730.78;;;-0.24;95.23
8366;BME280;4220;42.502;24.188;2023-03-19T03:53:18;95675.19;;;-0.61;96.82
8366;BME280;4220;42.502;24.188;2023-03-19T03:55:45;95726.69;;;-0.36;99.26
8366;BME280;4220;42.502;24.188;2023-03-19T03:58:12;95717.38;;;-0.48;100.00
8366;BME280;4220;42.502;24.188;2023-03-19T04:00:39;95713.53;;;-0.35;100.00
8366;BME280;4220;42.502;24.188;2023-03-19T04:03:05;95712.56;;;-0.34;100.00
8366;BME280;4220;42.502;24.188;2023-03-19T04:05:33;95726.16;;;-0.30;100.00
8366;BME280;4220;42.502;24.188;2023-03-19T04:08:02;95686.41;;;-0.61;100.00
8366;BME280;4220;42.502;24.188;2023-03-19T04:10:29;95736.56;;;-0.30;100.00
8366;BME280;4220;42.502;24.188;2023-03-19T04:12:56;95731.88;;;-0.27;100.00
8366;BME280;4220;42.502;24.188;2023-03-19T04:15:23;95733.53;;;-0.26;100.00
8366;BME280;4220;42.502;24.188;2023-03-19T04:17:50;95724.47;;;-0.31;100.00
8366;BME280;4220;42.502;24.188;2023-03-19T04:20:18;95733.13;;;-0.21;100.00
8366;BME280;4220;42.502;24.188;2023-03-19T04:22:47;95739.97;;;-0.20;100.00
8366;BME280;4220;42.502;24.188;2023-03-19T04:25:15;95746.94;;;-0.11;100.00
8366;BME280;4220;42.502;24.188;2023-03-19T04:27:42;95736.25;;;-0.08;100.00
8366;BME280;4220;42.502;24.188;2023-03-19T04:30:11;95759.25;;;0.06;99.91
8366;BME280;4220;42.502;24.188;2023-03-19T04:32:38;95756.09;;;0.12;98.53
8366;BME280;4220;42.502;24.188;2023-03-19T04:35:05;95767.88;;;0.16;94.77
8366;BME280;4220;42.502;24.188;2023-03-19T04:37:32;95761.44;;;0.11;93.42
8366;BME280;4220;42.502;24.188;2023-03-19T04:39:59;95762.81;;;0.15;91.25
8366;BME280;4220;42.502;24.188;2023-03-19T04:42:27;95765.84;;;0.00;91.51
8366;BME280;4220;42.502;24.188;2023-03-19T04:44:54;95768.22;;;-0.06;94.22
8366;BME280;4220;42.502;24.188;2023-03-19T04:47:21;95771.06;;;0.00;95.12
8366;BME280;4220;42.502;24.188;2023-03-19T04:49:47;95725.84;;;-0.18;94.06
8366;BME280;4220;42.502;24.188;2023-03-19T04:52:14;95758.03;;;0.00;93.59
8366;BME280;4220;42.502;24.188;2023-03-19T04:54:41;95763.41;;;-0.01;95.07
8366;BME280;4220;42.502;24.188;2023-03-19T04:57:08;95767.53;;;-0.08;97.86
8366;BME280;4220;42.502;24.188;2023-03-19T04:59:36;95772.19;;;-0.12;99.77
8366;BME280;4220;42.502;24.188;2023-03-19T05:02:03;95772.78;;;-0.18;100.00
8366;BME280;4220;42.502;24.188;2023-03-19T05:04:30;95774.41;;;-0.17;100.00
8366;BME280;4220;42.502;24.188;2023-03-19T05:06:57;95773.28;;;-0.05;100.00
8366;BME280;4220;42.502;24.188;2023-03-19T05:09:24;95778.47;;;0.05;100.00
8366;BME280;4220;42.502;24.188;2023-03-19T05:11:50;95782.88;;;0.14;98.35
8366;BME280;4220;42.502;24.188;2023-03-19T05:14:17;95786.94;;;0.26;96.35
8366;BME280;4220;42.502;24.188;2023-03-19T05:16:45;95780.59;;;0.38;94.58
8366;BME280;4220;42.502;24.188;2023-03-19T05:19:12;95789.34;;;0.47;93.06
8366;BME280;4220;42.502;24.188;2023-03-19T05:21:39;95789.44;;;0.55;91.91
8366;BME280;4220;42.502;24.188;2023-03-19T05:24:07;95792.31;;;0.61;90.79
8366;BME280;4220;42.502;24.188;2023-03-19T05:26:34;95784.88;;;0.66;89.66
8366;BME280;4220;42.502;24.188;2023-03-19T05:29:01;95787.09;;;0.61;89.22
8366;BME280;4220;42.502;24.188;2023-03-19T05:31:29;95795.63;;;0.63;89.41
8366;BME280;4220;42.502;24.188;2023-03-19T05:33:57;95795.31;;;0.66;89.59
8366;BME280;4220;42.502;24.188;2023-03-19T05:36:24;95801.22;;;0.69;89.14
8366;BME280;4220;42.502;24.188;2023-03-19T05:38:51;95798.06;;;0.65;90.04
8366;BME280;4220;42.502;24.188;2023-03-19T05:41:18;95798.78;;;0.57;91.81
8366;BME280;4220;42.502;24.188;2023-03-19T05:43:44;95798.09;;;0.55;93.55
8366;BME280;4220;42.502;24.188;2023-03-19T05:46:11;95792.88;;;0.55;94.25
8366;BME280;4220;42.502;24.188;2023-03-19T05:48:38;95799.94;;;0.45;98.57
8366;BME280;4220;42.502;24.188;2023-03-19T05:51:06;95798.50;;;0.60;99.61
8366;BME280;4220;42.502;24.188;2023-03-19T05:53:33;95806.25;;;0.80;98.78
8366;BME280;4220;42.502;24.188;2023-03-19T05:56:00;95805.53;;;0.87;98.25
8366;BME280;4220;42.502;24.188;2023-03-19T05:58:27;95796.19;;;1.12;97.44
8366;BME280;4220;42.502;24.188;2023-03-19T06:00:54;95796.63;;;1.07;97.69
8366;BME280;4220;42.502;24.188;2023-03-19T06:03:22;95782.19;;;1.03;100.00
8366;BME280;4220;42.502;24.188;2023-03-19T06:05:49;95784.09;;;1.11;100.00
8366;BME280;4220;42.502;24.188;2023-03-19T06:08:18;95800.25;;;1.42;99.63
8366;BME280;4220;42.502;24.188;2023-03-19T06:10:45;95794.06;;;1.60;97.54
8366;BME280;4220;42.502;24.188;2023-03-19T06:13:12;95803.28;;;1.64;96.85
8366;BME280;4220;42.502;24.188;2023-03-19T06:15:39;95795.91;;;1.50;98.12
8366;BME280;4220;42.502;24.188;2023-03-19T06:18:06;95804.06;;;1.65;98.63
8366;BME280;4220;42.502;24.188;2023-03-19T06:20:33;95794.59;;;1.81;98.04
8366;BME280;4220;42.502;24.188;2023-03-19T06:23:00;95803.50;;;2.14;95.96
8366;BME280;4220;42.502;24.188;2023-03-19T06:25:28;95799.63;;;2.44;93.68
8366;BME280;4220;42.502;24.188;2023-03-19T06:27:55;95790.56;;;2.64;90.33
8366;BME280;4220;42.502;24.188;2023-03-19T06:30:22;95798.06;;;2.93;89.05
8366;BME280;4220;42.502;24.188;2023-03-19T06:32:48;95804.41;;;3.16;86.18
8366;BME280;4220;42.502;24.188;2023-03-19T06:35:16;95805.78;;;3.36;84.60
8366;BME280;4220;42.502;24.188;2023-03-19T06:37:43;95804.66;;;3.55;83.01
8366;BME280;4220;42.502;24.188;2023-03-19T06:40:10;95801.75;;;3.66;81.47
8366;BME280;4220;42.502;24.188;2023-03-19T06:42:43;95790.75;;;3.46;81.44
8366;BME280;4220;42.502;24.188;2023-03-19T06:45:11;95799.91;;;3.50;81.89
8366;BME280;4220;42.502;24.188;2023-03-19T06:47:40;95804.34;;;3.58;82.05
8366;BME280;4220;42.502;24.188;2023-03-19T06:50:08;95802.91;;;3.79;80.99
8366;BME280;4220;42.502;24.188;2023-03-19T06:52:35;95799.81;;;4.00;79.90
8366;BME280;4220;42.502;24.188;2023-03-19T06:55:02;95807.69;;;4.32;78.13
8366;BME280;4220;42.502;24.188;2023-03-19T06:57:29;95809.28;;;4.57;76.63
8366;BME280;4220;42.502;24.188;2023-03-19T06:59:57;95804.78;;;4.82;74.05
8366;BME280;4220;42.502;24.188;2023-03-19T07:02:24;95808.66;;;5.02;72.60
8366;BME280;4220;42.502;24.188;2023-03-19T07:04:52;95806.13;;;5.25;70.85
8366;BME280;4220;42.502;24.188;2023-03-19T07:07:19;95802.25;;;5.44;68.88
8366;BME280;4220;42.502;24.188;2023-03-19T07:09:46;95800.19;;;5.62;67.40
8366;BME280;4220;42.502;24.188;2023-03-19T07:12:12;95791.53;;;5.76;66.95
8366;BME280;4220;42.502;24.188;2023-03-19T07:14:39;95754.22;;;5.72;65.79
8366;BME280;4220;42.502;24.188;2023-03-19T07:17:08;95794.78;;;6.09;63.87
8366;BME280;4220;42.502;24.188;2023-03-19T07:19:34;95799.28;;;6.23;63.22
8366;BME280;4220;42.502;24.188;2023-03-19T07:22:01;95799.38;;;6.29;63.31
8366;BME280;4220;42.502;24.188;2023-03-19T07:24:28;95793.50;;;6.42;63.18
8366;BME280;4220;42.502;24.188;2023-03-19T07:26:55;95789.91;;;6.57;63.11
8366;BME280;4220;42.502;24.188;2023-03-19T07:29:23;95785.28;;;6.74;63.09
8366;BME280;4220;42.502;24.188;2023-03-19T07:31:49;95777.47;;;6.95;62.33
8366;BME280;4220;42.502;24.188;2023-03-19T07:34:18;95779.56;;;7.14;61.70
8366;BME280;4220;42.502;24.188;2023-03-19T07:36:44;95777.75;;;7.30;61.26
8366;BME280;4220;42.502;24.188;2023-03-19T07:39:11;95773.91;;;7.47;60.53
8366;BME280;4220;42.502;24.188;2023-03-19T07:41:38;95774.84;;;7.60;59.93
8366;BME280;4220;42.502;24.188;2023-03-19T07:44:05;95778.47;;;7.74;59.53
8366;BME280;4220;42.502;24.188;2023-03-19T07:46:32;95739.09;;;7.58;58.65
8366;BME280;4220;42.502;24.188;2023-03-19T07:48:59;95776.44;;;7.97;58.42
8366;BME280;4220;42.502;24.188;2023-03-19T07:51:27;95770.53;;;8.16;56.47
8366;BME280;4220;42.502;24.188;2023-03-19T07:53:54;95777.41;;;8.32;55.23
8366;BME280;4220;42.502;24.188;2023-03-19T07:56:20;95782.00;;;8.44;52.25
8366;BME280;4220;42.502;24.188;2023-03-19T07:58:47;95762.78;;;8.57;52.78
8366;BME280;4220;42.502;24.188;2023-03-19T08:01:14;95767.34;;;8.70;52.31
8366;BME280;4220;42.502;24.188;2023-03-19T08:03:41;95768.47;;;8.88;53.17
8366;BME280;4220;42.502;24.188;2023-03-19T08:06:08;95762.06;;;9.04;52.17
8366;BME280;4220;42.502;24.188;2023-03-19T08:08:36;95689.88;;;8.76;53.54
8366;BME280;4220;42.502;24.188;2023-03-19T08:11:03;95775.50;;;9.43;53.56
8366;BME280;4220;42.502;24.188;2023-03-19T08:13:31;95777.16;;;9.57;53.25
8366;BME280;4220;42.502;24.188;2023-03-19T08:15:58;95771.28;;;9.68;53.36
8366;BME280;4220;42.502;24.188;2023-03-19T08:18:24;95768.06;;;9.79;53.11
8366;BME280;4220;42.502;24.188;2023-03-19T08:20:51;95769.94;;;9.99;52.09
8366;BME280;4220;42.502;24.188;2023-03-19T08:23:18;95772.88;;;10.17;51.64
8366;BME280;4220;42.502;24.188;2023-03-19T08:25:47;95769.41;;;10.23;52.22
8366;BME280;4220;42.502;24.188;2023-03-19T08:28:16;95765.94;;;10.29;52.46
8366;BME280;4220;42.502;24.188;2023-03-19T08:30:42;95767.19;;;10.46;52.75
8366;BME280;4220;42.502;24.188;2023-03-19T08:33:09;95767.38;;;10.44;53.58
8366;BME280;4220;42.502;24.188;2023-03-19T08:35:37;95773.31;;;10.46;53.61
8366;BME280;4220;42.502;24.188;2023-03-19T08:38:04;95770.66;;;10.53;54.13
8366;BME280;4220;42.502;24.188;2023-03-19T08:40:32;95775.53;;;10.69;53.68
8366;BME280;4220;42.502;24.188;2023-03-19T08:43:00;95760.44;;;10.83;53.39
8366;BME280;4220;42.502;24.188;2023-03-19T08:45:28;95761.41;;;11.01;53.49
8366;BME280;4220;42.502;24.188;2023-03-19T08:47:55;95757.09;;;11.20;53.40
8366;BME280;4220;42.502;24.188;2023-03-19T08:50:22;95747.03;;;11.29;53.78
8366;BME280;4220;42.502;24.188;2023-03-19T08:52:49;95748.59;;;11.43;53.71
8366;BME280;4220;42.502;24.188;2023-03-19T08:55:17;95759.19;;;11.69;52.93
8366;BME280;4220;42.502;24.188;2023-03-19T08:57:43;95745.19;;;11.80;52.50
8366;BME280;4220;42.502;24.188;2023-03-19T09:00:13;95746.38;;;11.91;52.11
8366;BME280;4220;42.502;24.188;2023-03-19T09:02:40;95754.84;;;12.12;51.67
8366;BME280;4220;42.502;24.188;2023-03-19T09:05:07;95751.81;;;12.02;51.75
8366;BME280;4220;42.502;24.188;2023-03-19T09:07:34;95748.44;;;11.89;52.37
8366;BME280;4220;42.502;24.188;2023-03-19T09:10:01;95738.66;;;11.82;52.88
8366;BME280;4220;42.502;24.188;2023-03-19T09:12:28;95736.16;;;11.88;53.46
8366;BME280;4220;42.502;24.188;2023-03-19T09:14:55;95743.31;;;11.94;52.77
8366;BME280;4220;42.502;24.188;2023-03-19T09:17:23;95735.53;;;11.92;52.69
8366;BME280;4220;42.502;24.188;2023-03-19T09:19:50;95730.72;;;12.07;52.08
8366;BME280;4220;42.502;24.188;2023-03-19T09:22:16;95722.59;;;12.02;52.27
8366;BME280;4220;42.502;24.188;2023-03-19T09:24:43;95720.44;;;12.17;52.14
8366;BME280;4220;42.502;24.188;2023-03-19T09:27:10;95724.19;;;12.34;51.61
8366;BME280;4220;42.502;24.188;2023-03-19T09:29:37;95714.47;;;12.46;50.96
8366;BME280;4220;42.502;24.188;2023-03-19T09:32:04;95725.44;;;12.57;50.35
8366;BME280;4220;42.502;24.188;2023-03-19T09:34:32;95723.34;;;12.65;50.33
8366;BME280;4220;42.502;24.188;2023-03-19T09:36:59;95718.44;;;12.62;50.06
8366;BME280;4220;42.502;24.188;2023-03-19T09:39:26;95708.53;;;12.69;50.11
8366;BME280;4220;42.502;24.188;2023-03-19T09:42:09;95710.47;;;12.80;50.13
8366;BME280;4220;42.502;24.188;2023-03-19T09:44:40;95708.50;;;12.94;49.17
8366;BME280;4220;42.502;24.188;2023-03-19T09:47:23;95710.88;;;13.02;49.00
8366;BME280;4220;42.502;24.188;2023-03-19T09:49:54;95693.75;;;13.16;48.60
8366;BME280;4220;42.502;24.188;2023-03-19T09:52:33;95670.41;;;12.93;48.42
8366;BME280;4220;42.502;24.188;2023-03-19T09:55:05;95695.31;;;13.24;48.11
8366;BME280;4220;42.502;24.188;2023-03-19T09:57:37;95693.44;;;13.42;47.79
8366;BME280;4220;42.502;24.188;2023-03-19T10:00:18;95684.69;;;13.53;47.81
8366;BME280;4220;42.502;24.188;2023-03-19T10:02:50;95683.34;;;13.62;47.67
8366;BME280;4220;42.502;24.188;2023-03-19T10:05:27;95681.06;;;13.77;47.14
8366;BME280;4220;42.502;24.188;2023-03-19T10:08:28;95678.84;;;14.04;47.05
8366;BME280;4220;42.502;24.188;2023-03-19T10:11:08;95673.78;;;14.26;46.27
8366;BME280;4220;42.502;24.188;2023-03-19T10:13:51;95678.38;;;14.60;45.64
8366;BME280;4220;42.502;24.188;2023-03-19T10:16:21;95681.72;;;14.56;45.30
8366;BME280;4220;42.502;24.188;2023-03-19T10:18:51;95676.19;;;14.16;45.58
8366;BME280;4220;42.502;24.188;2023-03-19T10:21:24;95671.28;;;14.01;46.80
8366;BME280;4220;42.502;24.188;2023-03-19T10:23:56;95665.50;;;14.04;46.27
8366;BME280;4220;42.502;24.188;2023-03-19T10:26:28;95667.59;;;14.14;46.07
8366;BME280;4220;42.502;24.188;2023-03-19T10:29:02;95665.59;;;14.51;45.49
8366;BME280;4220;42.502;24.188;2023-03-19T10:31:48;95658.63;;;14.84;44.87
8366;BME280;4220;42.502;24.188;2023-03-19T10:34:27;95656.47;;;15.33;44.15
8366;BME280;4220;42.502;24.188;2023-03-19T10:37:02;95659.56;;;15.81;42.97
8366;BME280;4220;42.502;24.188;2023-03-19T10:39:34;95664.38;;;16.12;42.46
8366;BME280;4220;42.502;24.188;2023-03-19T10:42:25;95662.44;;;16.24;41.91
8366;BME280;4220;42.502;24.188;2023-03-19T10:45:00;95633.50;;;16.38;41.49
8366;BME280;4220;42.502;24.188;2023-03-19T10:47:35;95651.28;;;16.77;40.75
8366;BME280;4220;42.502;24.188;2023-03-19T10:50:04;95631.09;;;16.91;40.02
8366;BME280;4220;42.502;24.188;2023-03-19T10:52:34;95637.00;;;16.72;39.98
8366;BME280;4220;42.502;24.188;2023-03-19T10:55:06;95640.06;;;16.14;40.81
8366;BME280;4220;42.502;24.188;2023-03-19T10:57:40;95626.69;;;16.14;41.00
8366;BME280;4220;42.502;24.188;2023-03-19T11:00:15;95622.22;;;16.69;40.50
8366;BME280;4220;42.502;24.188;2023-03-19T11:02:46;95619.66;;;17.18;39.31
8366;BME280;4220;42.502;24.188;2023-03-19T11:05:24;95621.81;;;17.42;38.80
8366;BME280;4220;42.502;24.188;2023-03-19T11:07:56;95614.34;;;17.66;38.51
8366;BME280;4220;42.502;24.188;2023-03-19T11:10:25;95599.47;;;17.80;38.08
8366;BME280;4220;42.502;24.188;2023-03-19T11:12:55;95596.22;;;18.05;37.67
8366;BME280;4220;42.502;24.188;2023-03-19T11:15:27;95595.88;;;18.33;37.74
8366;BME280;4220;42.502;24.188;2023-03-19T11:17:57;95586.03;;;18.44;37.37
8366;BME280;4220;42.502;24.188;2023-03-19T11:20:29;95546.09;;;18.47;36.79
8366;BME280;4220;42.502;24.188;2023-03-19T11:22:59;95583.13;;;18.92;36.64
8366;BME280;4220;42.502;24.188;2023-03-19T11:25:33;95584.63;;;19.20;35.76
8366;BME280;4220;42.502;24.188;2023-03-19T11:28:02;95543.00;;;18.75;36.07
8366;BME280;4220;42.502;24.188;2023-03-19T11:30:37;95578.09;;;19.06;35.98
8366;BME280;4220;42.502;24.188;2023-03-19T11:36:12;95553.88;;;19.01;36.09
8366;BME280;4220;42.502;24.188;2023-03-19T11:39:07;95569.06;;;19.32;35.93
8366;BME280;4220;42.502;24.188;2023-03-19T11:41:48;95527.19;;;19.41;35.47
8366;BME280;4220;42.502;24.188;2023-03-19T11:44:22;95546.56;;;19.53;35.10
8366;BME280;4220;42.502;24.188;2023-03-19T11:46:56;95561.91;;;19.58;35.30
8366;BME280;4220;42.502;24.188;2023-03-19T11:49:40;95542.25;;;19.47;34.84
8366;BME280;4220;42.502;24.188;2023-03-19T11:52:17;95549.81;;;19.65;34.56
8366;BME280;4220;42.502;24.188;2023-03-19T11:54:58;95537.72;;;19.88;34.09
8366;BME280;4220;42.502;24.188;2023-03-19T11:57:39;95542.88;;;20.19;33.41
8366;BME280;4220;42.502;24.188;2023-03-19T12:00:21;95540.16;;;20.40;32.89
8366;BME280;4220;42.502;24.188;2023-03-19T12:03:06;95528.28;;;20.66;32.65
8366;BME280;4220;42.502;24.188;2023-03-19T12:05:45;95529.91;;;20.47;32.81
8366;BME280;4220;42.502;24.188;2023-03-19T12:08:26;95535.34;;;20.27;32.78
8366;BME280;4220;42.502;24.188;2023-03-19T12:11:05;95519.72;;;20.29;32.55
8366;BME280;4220;42.502;24.188;2023-03-19T12:13:45;95524.53;;;20.06;32.59
8366;BME280;4220;42.502;24.188;2023-03-19T12:16:23;95520.25;;;20.36;31.86
8366;BME280;4220;42.502;24.188;2023-03-19T12:19:23;95518.47;;;20.95;31.54
8366;BME280;4220;42.502;24.188;2023-03-19T12:22:02;95515.06;;;21.33;30.84
8366;BME280;4220;42.502;24.188;2023-03-19T12:24:40;95517.00;;;21.77;30.55
8366;BME280;4220;42.502;24.188;2023-03-19T12:27:26;95515.78;;;21.98;29.53
8366;BME280;4220;42.502;24.188;2023-03-19T12:29:59;95512.66;;;21.76;29.54
8366;BME280;4220;42.502;24.188;2023-03-19T12:32:41;95462.25;;;21.66;29.37
8366;BME280;4220;42.502;24.188;2023-03-19T12:35:14;95493.53;;;22.11;29.29
8366;BME280;4220;42.502;24.188;2023-03-19T12:37:45;95499.88;;;22.25;29.44
8366;BME280;4220;42.502;24.188;2023-03-19T12:40:25;95493.50;;;22.40;28.86
8366;BME280;4220;42.502;24.188;2023-03-19T12:42:57;95498.84;;;22.73;28.62
8366;BME280;4220;42.502;24.188;2023-03-19T12:45:28;95489.47;;;23.13;28.14
8366;BME280;4220;42.502;24.188;2023-03-19T12:48:01;95501.16;;;23.09;27.58
8366;BME280;4220;42.502;24.188;2023-03-19T12:50:31;95493.25;;;23.36;27.29
8366;BME280;4220;42.502;24.188;2023-03-19T12:53:04;95444.78;;;22.97;27.28
8366;BME280;4220;42.502;24.188;2023-03-19T12:55:37;95484.81;;;22.71;27.80
8366;BME280;4220;42.502;24.188;2023-03-19T12:58:10;95479.19;;;22.92;27.64
8366;BME280;4220;42.502;24.188;2023-03-19T13:00:45;95477.00;;;22.94;27.26
8366;BME280;4220;42.502;24.188;2023-03-19T13:03:17;95474.78;;;23.19;27.13
8366;BME280;4220;42.502;24.188;2023-03-19T13:05:51;95454.53;;;23.17;26.81
8366;BME280;4220;42.502;24.188;2023-03-19T13:08:25;95463.47;;;23.12;26.27
8366;BME280;4220;42.502;24.188;2023-03-19T13:10:54;95440.00;;;22.89;26.70
8366;BME280;4220;42.502;24.188;2023-03-19T13:13:37;95473.44;;;23.40;26.36
8366;BME280;4220;42.502;24.188;2023-03-19T13:16:09;95459.50;;;23.84;25.98
8366;BME280;4220;42.502;24.188;2023-03-19T13:18:43;95466.16;;;24.05;25.31
8366;BME280;4220;42.502;24.188;2023-03-19T13:21:21;95469.25;;;23.48;25.40
8366;BME280;4220;42.502;24.188;2023-03-19T13:23:57;95465.81;;;23.42;25.73
8366;BME280;4220;42.502;24.188;2023-03-19T13:26:26;95455.28;;;23.41;25.73
8366;BME280;4220;42.502;24.188;2023-03-19T13:28:59;95409.63;;;23.53;25.85
8366;BME280;4220;42.502;24.188;2023-03-19T13:31:28;95453.00;;;24.18;25.02